createdAt,value
2019-04-05T00:01:38.463Z,20.97
2019-04-05T00:04:07.573Z,14.87
2019-04-05T00:06:36.834Z,22.17
2019-04-05T00:09:07.023Z,12.93
2019-04-05T00:11:36.179Z,13.70
2019-04-05T00:14:05.340Z,58.80
2019-04-05T00:16:34.504Z,20.23
2019-04-05T00:19:03.634Z,32.37
2019-04-05T00:21:32.866Z,32.37
2019-04-05T00:24:02.005Z,132.60
2019-04-05T00:26:31.173Z,232.60
2019-04-05T00:29:00.356Z,260.83
2019-04-05T00:31:29.464Z,122.70
2019-04-05T00:33:58.648Z,31.93
2019-04-05T00:36:27.779Z,15.93
2019-04-05T00:38:57.036Z,15.27
2019-04-05T00:41:26.174Z,16.47
2019-04-05T00:43:55.279Z,12.90
2019-04-05T00:46:24.436Z,14.47
2019-04-05T00:48:53.551Z,16.07
2019-04-05T00:51:22.945Z,15.37
2019-04-05T00:53:52.114Z,9.33
2019-04-05T00:56:21.188Z,10.07
2019-04-05T00:58:50.348Z,28.03
2019-04-05T01:01:19.569Z,31.77
2019-04-05T01:03:48.671Z,13.80
2019-04-05T01:06:17.831Z,36.40
2019-04-05T01:08:46.962Z,32.40
2019-04-05T01:11:16.100Z,23.73
2019-04-05T01:13:45.231Z,24.50
2019-04-05T01:16:14.342Z,22.10
2019-04-05T01:18:43.471Z,18.70
2019-04-05T01:21:14.758Z,14.60
2019-04-05T01:23:45.050Z,12.40
2019-04-05T01:26:15.539Z,11.80
2019-04-05T01:28:44.768Z,13.67
2019-04-05T01:31:13.871Z,12.90
2019-04-05T01:33:43.000Z,10.70
2019-04-05T01:36:12.160Z,11.17
2019-04-05T01:38:41.335Z,12.80
2019-04-05T01:41:10.528Z,8.57
2019-04-05T01:43:39.638Z,10.53
2019-04-05T01:46:08.860Z,11.90
2019-04-05T01:48:38.021Z,10.77
2019-04-05T01:51:07.238Z,10.77
2019-04-05T01:53:36.470Z,14.77
2019-04-05T01:56:05.787Z,13.20
2019-04-05T01:58:34.883Z,12.57
2019-04-05T02:01:04.099Z,14.33
2019-04-05T02:03:33.222Z,10.60
2019-04-05T02:06:02.370Z,10.33
2019-04-05T02:08:31.590Z,12.33
2019-04-05T02:11:00.724Z,12.93
2019-04-05T02:13:29.850Z,14.67
2019-04-05T02:16:06.311Z,16.60
2019-04-05T02:18:29.829Z,13.43
2019-04-05T02:20:58.947Z,24.83
2019-04-05T02:23:28.073Z,14.07
2019-04-05T02:25:57.277Z,15.57
2019-04-05T02:28:26.404Z,61.00
2019-04-05T02:30:55.547Z,21.97
2019-04-05T02:33:24.756Z,125.53
2019-04-05T02:35:53.903Z,234.67
2019-04-05T02:38:23.058Z,22.80
2019-04-05T02:40:53.984Z,16.73
2019-04-05T02:43:25.531Z,20.13
2019-04-05T02:45:56.583Z,17.67
2019-04-05T02:48:28.936Z,16.67
2019-04-05T02:51:01.109Z,17.30
2019-04-05T02:53:31.522Z,19.10
2019-04-05T02:56:03.349Z,17.17
2019-04-05T02:58:34.145Z,16.13
2019-04-05T03:01:03.409Z,18.77
2019-04-05T03:03:32.590Z,15.97
2019-04-05T03:06:02.431Z,18.33
2019-04-05T03:08:31.779Z,16.47
2019-04-05T03:11:08.926Z,16.90
2019-04-05T03:13:42.007Z,16.10
2019-04-05T03:16:17.350Z,15.27
2019-04-05T03:18:55.179Z,14.03
2019-04-05T03:21:27.694Z,15.47
2019-04-05T03:24:00.459Z,15.07
2019-04-05T03:26:32.842Z,14.13
2019-04-05T03:29:05.223Z,13.90
2019-04-05T03:31:35.560Z,17.97
2019-04-05T03:34:05.600Z,18.53
2019-04-05T03:36:35.451Z,18.30
2019-04-05T03:39:05.959Z,14.47
2019-04-05T03:41:35.388Z,15.03
2019-04-05T03:44:04.995Z,15.00
2019-04-05T03:46:34.556Z,65.20
2019-04-05T03:49:05.301Z,17.83
2019-04-05T03:51:35.375Z,17.40
2019-04-05T03:54:05.589Z,15.90
2019-04-05T03:56:37.816Z,194.77
2019-04-05T03:59:05.911Z,235.53
2019-04-05T04:01:35.041Z,14.93
2019-04-05T04:04:04.500Z,14.60
2019-04-05T04:06:33.745Z,20.50
2019-04-05T04:09:04.512Z,20.00
2019-04-05T04:11:33.982Z,35.53
2019-04-05T04:14:03.154Z,17.03
2019-04-05T04:16:32.586Z,18.33
2019-04-05T04:19:01.932Z,18.67
2019-04-05T04:21:38.786Z,14.77
2019-04-05T04:24:09.797Z,14.30
2019-04-05T04:26:39.844Z,15.73
2019-04-05T04:29:09.000Z,14.07
2019-04-05T04:31:38.810Z,14.70
2019-04-05T04:34:08.441Z,15.23
2019-04-05T04:36:37.692Z,12.83
2019-04-05T04:39:07.021Z,14.23
2019-04-05T04:41:36.277Z,15.60
2019-04-05T04:44:05.595Z,13.60
2019-04-05T04:46:34.751Z,14.27
2019-04-05T04:49:04.225Z,13.87
2019-04-05T04:51:34.144Z,16.27
2019-04-05T04:54:03.908Z,15.83
2019-04-05T04:56:33.164Z,13.53
2019-04-05T04:59:02.280Z,17.03
2019-04-05T05:01:31.436Z,15.57
2019-04-05T05:04:00.994Z,13.20
2019-04-05T05:06:30.274Z,14.03
2019-04-05T05:09:00.739Z,15.40
2019-04-05T05:11:30.352Z,14.97
2019-04-05T05:13:59.496Z,16.57
2019-04-05T05:16:28.644Z,14.50
2019-04-05T05:18:57.826Z,15.77
2019-04-05T05:21:27.045Z,14.37
2019-04-05T05:23:56.374Z,15.00
2019-04-05T05:26:25.696Z,14.30
2019-04-05T05:28:54.811Z,13.20
2019-04-05T05:31:25.069Z,12.87
2019-04-05T05:33:54.398Z,12.37
2019-04-05T05:36:23.545Z,14.70
2019-04-05T05:38:52.710Z,12.03
2019-04-05T05:41:21.876Z,14.53
2019-04-05T05:43:51.043Z,15.40
2019-04-05T05:46:20.194Z,15.83
2019-04-05T05:48:49.739Z,14.93
2019-04-05T05:51:18.994Z,15.00
2019-04-05T05:53:48.130Z,16.17
2019-04-05T05:56:17.265Z,17.70
2019-04-05T05:58:46.432Z,16.20
2019-04-05T06:01:15.629Z,15.20
2019-04-05T06:03:44.772Z,17.57
2019-04-05T06:06:13.978Z,16.33
2019-04-05T06:08:43.119Z,17.93
2019-04-05T06:11:12.246Z,15.67
2019-04-05T06:13:41.366Z,15.23
2019-04-05T06:16:10.508Z,15.93
2019-04-05T06:18:39.677Z,17.53
2019-04-05T06:21:08.845Z,14.80
2019-04-05T06:23:37.996Z,15.70
2019-04-05T06:26:07.151Z,16.63
2019-04-05T06:28:36.389Z,15.90
2019-04-05T06:31:05.619Z,15.77
2019-04-05T06:33:35.986Z,15.40
2019-04-05T06:36:05.223Z,16.10
2019-04-05T06:38:34.379Z,15.50
2019-04-05T06:41:03.542Z,16.27
2019-04-05T06:43:32.679Z,15.93
2019-04-05T06:46:01.975Z,15.63
2019-04-05T06:48:31.424Z,16.37
2019-04-05T06:51:00.571Z,14.60
2019-04-05T06:53:29.727Z,16.70
2019-04-05T06:55:59.947Z,16.37
2019-04-05T06:58:29.628Z,15.77
2019-04-05T07:00:59.268Z,16.23
2019-04-05T07:03:28.400Z,15.37
2019-04-05T07:05:57.559Z,16.57
2019-04-05T07:08:26.721Z,16.60
2019-04-05T07:10:55.784Z,17.00
2019-04-05T07:13:27.277Z,16.77
2019-04-05T07:15:55.804Z,16.63
2019-04-05T07:18:34.021Z,17.47
2019-04-05T07:20:57.934Z,17.23
2019-04-05T07:23:26.707Z,16.27
2019-04-05T07:25:55.877Z,17.03
2019-04-05T07:28:25.375Z,16.63
2019-04-05T07:30:54.777Z,17.13
2019-04-05T07:33:24.063Z,16.50
2019-04-05T07:35:53.196Z,16.43
2019-04-05T07:38:22.703Z,18.07
2019-04-05T07:40:51.915Z,18.13
2019-04-05T07:43:21.053Z,16.67
2019-04-05T07:45:50.262Z,17.27
2019-04-05T07:48:19.433Z,19.50
2019-04-05T07:50:48.581Z,17.90
2019-04-05T07:53:17.707Z,19.37
2019-04-05T07:55:46.881Z,18.53
2019-04-05T07:58:16.036Z,18.80
2019-04-05T08:00:55.690Z,18.30
2019-04-05T08:03:25.451Z,18.33
2019-04-05T08:05:54.929Z,18.43
2019-04-05T08:08:49.240Z,19.13
2019-04-05T08:11:18.805Z,18.13
2019-04-05T08:13:49.923Z,19.23
2019-04-05T08:16:19.039Z,19.20
2019-04-05T08:18:57.782Z,19.20
2019-04-05T08:21:19.144Z,18.33
2019-04-05T08:23:48.315Z,18.47
2019-04-05T08:26:17.459Z,17.77
2019-04-05T08:28:46.618Z,19.13
2019-04-05T08:31:16.623Z,17.10
2019-04-05T08:33:45.759Z,17.87
2019-04-05T08:36:14.905Z,14.83
2019-04-05T08:38:44.087Z,16.23
2019-04-05T08:41:13.275Z,18.83
2019-04-05T08:43:42.444Z,16.90
2019-04-05T08:46:11.563Z,15.10
2019-04-05T08:48:40.712Z,17.37
2019-04-05T08:51:09.880Z,16.70
2019-04-05T08:53:39.098Z,16.73
2019-04-05T08:56:08.281Z,17.23
2019-04-05T08:58:37.436Z,14.73
2019-04-05T09:01:06.578Z,15.20
2019-04-05T09:03:35.716Z,15.23
2019-04-05T09:06:04.941Z,16.93
2019-04-05T09:08:34.097Z,15.40
2019-04-05T09:11:03.327Z,14.80
2019-04-05T09:13:32.490Z,15.03
2019-04-05T09:16:01.657Z,15.90
2019-04-05T09:18:30.780Z,15.23
2019-04-05T09:21:00.021Z,16.03
2019-04-05T09:23:29.170Z,14.03
2019-04-05T09:25:58.317Z,15.00
2019-04-05T09:28:27.462Z,14.73
2019-04-05T09:30:56.582Z,14.07
2019-04-05T09:33:25.740Z,15.40
2019-04-05T09:35:54.857Z,14.73
2019-04-05T09:38:24.052Z,13.17
2019-04-05T09:40:53.215Z,15.27
2019-04-05T09:43:22.438Z,13.63
2019-04-05T09:45:51.755Z,13.67
2019-04-05T09:48:21.001Z,14.40
2019-04-05T09:50:50.295Z,13.33
2019-04-05T09:53:19.480Z,14.13
2019-04-05T09:55:48.756Z,15.37
2019-04-05T09:58:17.941Z,14.50
2019-04-05T10:00:47.110Z,14.07
2019-04-05T10:03:16.354Z,15.10
2019-04-05T10:05:45.547Z,15.10
2019-04-05T10:08:14.719Z,14.73
2019-04-05T10:10:43.964Z,14.17
2019-04-05T10:13:13.095Z,13.13
2019-04-05T10:15:42.247Z,12.60
2019-04-05T10:18:11.465Z,11.67
2019-04-05T10:20:40.701Z,10.53
2019-04-05T10:23:09.859Z,10.43
2019-04-05T10:25:39.044Z,9.23
2019-04-05T10:28:08.210Z,10.77
2019-04-05T10:30:37.360Z,9.90
2019-04-05T10:33:06.512Z,6.83
2019-04-05T10:35:35.666Z,7.87
2019-04-05T10:38:05.896Z,8.40
2019-04-05T10:40:35.074Z,10.37
2019-04-05T10:43:04.545Z,9.07
2019-04-05T10:45:33.697Z,7.90
2019-04-05T10:48:02.850Z,9.10
2019-04-05T10:50:31.966Z,8.73
2019-04-05T10:53:01.114Z,9.60
2019-04-05T10:55:30.282Z,9.80
2019-04-05T10:57:59.439Z,9.53
2019-04-05T11:00:28.799Z,8.90
2019-04-05T11:02:57.971Z,10.40
2019-04-05T11:05:27.234Z,9.37
2019-04-05T11:07:56.736Z,11.00
2019-04-05T11:10:25.940Z,8.77
2019-04-05T11:12:55.079Z,8.47
2019-04-05T11:15:24.258Z,8.63
2019-04-05T11:17:53.425Z,9.80
2019-04-05T11:20:22.727Z,10.10
2019-04-05T11:22:52.072Z,10.50
2019-04-05T11:25:21.310Z,11.33
2019-04-05T11:27:50.562Z,10.80
2019-04-05T11:30:41.206Z,9.27
2019-04-05T11:33:10.466Z,9.20
2019-04-05T11:35:39.610Z,8.53
2019-04-05T11:38:09.092Z,7.73
2019-04-05T11:40:38.912Z,9.63
2019-04-05T11:43:08.070Z,10.83
2019-04-05T11:45:37.738Z,10.60
2019-04-05T11:48:07.300Z,10.73
2019-04-05T11:50:36.447Z,9.17
2019-04-05T11:53:06.475Z,9.07
2019-04-05T11:55:35.668Z,9.73
2019-04-05T11:58:04.904Z,9.07
2019-04-05T12:01:05.439Z,8.67
2019-04-05T12:03:34.676Z,9.10
2019-04-05T12:06:03.818Z,9.97
2019-04-05T12:08:33.111Z,9.60
2019-04-05T12:11:02.609Z,8.70
2019-04-05T12:13:31.767Z,10.00
2019-04-05T12:16:00.906Z,9.20
2019-04-05T12:18:30.067Z,8.90
2019-04-05T12:21:00.608Z,9.60
2019-04-05T12:23:32.421Z,10.23
2019-04-05T12:26:03.934Z,9.73
2019-04-05T12:28:31.928Z,10.27
2019-04-05T12:31:01.111Z,10.50
2019-04-05T12:33:30.305Z,10.80
2019-04-05T12:35:59.505Z,10.67
2019-04-05T12:38:33.091Z,9.53
2019-04-05T12:41:04.360Z,10.20
2019-04-05T12:43:34.231Z,9.87
2019-04-05T12:46:03.963Z,10.03
2019-04-05T12:48:33.107Z,9.27
2019-04-05T12:51:05.238Z,9.60
2019-04-05T12:53:33.156Z,8.90
2019-04-05T12:56:02.351Z,8.50
2019-04-05T12:58:32.872Z,8.23
2019-04-05T13:01:02.259Z,7.87
2019-04-05T13:03:31.460Z,8.63
2019-04-05T13:06:00.641Z,9.47
2019-04-05T13:08:29.789Z,9.30
2019-04-05T13:10:59.008Z,8.80
2019-04-05T13:13:28.121Z,8.13
2019-04-05T13:15:59.344Z,10.70
2019-04-05T13:18:30.490Z,10.73
2019-04-05T13:21:00.275Z,10.93
2019-04-05T13:23:30.296Z,10.33
2019-04-05T13:25:59.464Z,11.07
2019-04-05T13:28:28.653Z,10.27
2019-04-05T13:30:57.865Z,9.77
2019-04-05T13:33:29.008Z,9.77
2019-04-05T13:35:57.852Z,10.30
2019-04-05T13:38:27.035Z,8.50
2019-04-05T13:40:56.915Z,10.37
2019-04-05T13:43:26.508Z,10.63
2019-04-05T13:45:55.708Z,11.73
2019-04-05T13:48:24.850Z,11.10
2019-04-05T13:50:54.014Z,10.67
2019-04-05T13:53:23.154Z,11.90
2019-04-05T13:55:52.319Z,13.03
2019-04-05T13:58:21.516Z,12.97
2019-04-05T14:00:50.712Z,12.23
2019-04-05T14:03:20.861Z,12.83
2019-04-05T14:05:52.268Z,10.87
2019-04-05T14:08:21.079Z,12.63
2019-04-05T14:10:50.270Z,12.90
2019-04-05T14:13:19.413Z,11.20
2019-04-05T14:15:48.715Z,11.20
2019-04-05T14:18:20.580Z,13.03
2019-04-05T14:20:50.103Z,10.47
2019-04-05T14:23:23.268Z,10.37
2019-04-05T14:25:50.683Z,11.60
2019-04-05T14:28:19.852Z,12.63
2019-04-05T14:30:49.106Z,10.77
2019-04-05T14:33:18.233Z,10.93
2019-04-05T14:35:47.352Z,9.27
2019-04-05T14:38:16.493Z,9.63
2019-04-05T14:40:45.896Z,9.60
2019-04-05T14:43:15.725Z,9.10
2019-04-05T14:45:45.162Z,10.87
2019-04-05T14:48:14.317Z,9.90
2019-04-05T14:50:43.495Z,9.63
2019-04-05T14:53:12.653Z,9.03
2019-04-05T14:55:41.779Z,10.00
2019-04-05T14:58:10.998Z,10.00
2019-04-05T15:00:40.114Z,9.90
2019-04-05T15:03:09.356Z,10.93
2019-04-05T15:05:38.565Z,10.50
2019-04-05T15:08:07.710Z,9.63
2019-04-05T15:10:36.844Z,8.80
2019-04-05T15:13:06.000Z,10.77
2019-04-05T15:15:35.164Z,10.13
2019-04-05T15:18:04.257Z,12.27
2019-04-05T15:20:34.783Z,11.63
2019-04-05T15:23:04.314Z,11.03
2019-04-05T15:25:33.454Z,11.97
2019-04-05T15:28:02.578Z,10.33
2019-04-05T15:30:31.782Z,9.80
2019-04-05T15:33:03.506Z,10.33
2019-04-05T15:35:32.638Z,9.70
2019-04-05T15:38:02.308Z,9.30
2019-04-05T15:40:31.667Z,9.73
2019-04-05T15:43:01.213Z,9.70
2019-04-05T15:45:30.346Z,8.73
2019-04-05T15:47:59.533Z,9.73
2019-04-05T15:50:28.601Z,10.57
2019-04-05T15:52:59.737Z,9.30
2019-04-05T15:55:28.565Z,8.60
2019-04-05T15:57:57.688Z,10.27
2019-04-05T16:00:51.836Z,10.17
2019-04-05T16:03:20.951Z,8.87
2019-04-05T16:05:50.169Z,9.93
2019-04-05T16:08:19.449Z,10.23
2019-04-05T16:10:48.854Z,11.57
2019-04-05T16:13:18.019Z,11.37
2019-04-05T16:15:47.165Z,10.97
2019-04-05T16:18:16.322Z,12.67
2019-04-05T16:20:45.479Z,12.03
2019-04-05T16:23:14.648Z,13.33
2019-04-05T16:25:43.819Z,13.60
2019-04-05T16:28:12.977Z,12.67
2019-04-05T16:30:42.143Z,13.23
2019-04-05T16:33:11.357Z,12.20
2019-04-05T16:35:40.546Z,13.80
2019-04-05T16:38:09.758Z,13.43
2019-04-05T16:40:39.335Z,12.63
2019-04-05T16:43:08.505Z,12.27
2019-04-05T16:45:38.763Z,12.80
2019-04-05T16:48:08.254Z,13.53
2019-04-05T16:50:37.422Z,13.57
2019-04-05T16:53:06.644Z,13.13
2019-04-05T16:55:35.895Z,12.73
2019-04-05T16:58:05.081Z,12.90
2019-04-05T17:00:34.277Z,13.60
2019-04-05T17:03:03.662Z,13.93
2019-04-05T17:05:32.820Z,14.30
2019-04-05T17:08:01.962Z,17.20
2019-04-05T17:10:31.233Z,15.77
2019-04-05T17:13:00.379Z,17.00
2019-04-05T17:15:29.691Z,18.37
2019-04-05T17:17:58.843Z,16.27
2019-04-05T17:20:28.005Z,18.53
2019-04-05T17:22:58.664Z,16.83
2019-04-05T17:25:28.123Z,15.83
2019-04-05T17:27:57.302Z,18.53
2019-04-05T17:30:26.473Z,18.40
2019-04-05T17:32:55.628Z,18.90
2019-04-05T17:35:24.809Z,20.20
2019-04-05T17:37:53.962Z,18.90
2019-04-05T17:40:23.096Z,18.73
2019-04-05T17:42:52.243Z,17.40
2019-04-05T17:45:21.395Z,18.57
2019-04-05T17:47:50.523Z,20.47
2019-04-05T17:50:31.039Z,20.27
2019-04-05T17:53:11.178Z,19.10
2019-04-05T17:55:31.102Z,17.67
2019-04-05T17:58:02.496Z,18.53
2019-04-05T18:00:31.803Z,21.37
2019-04-05T18:03:01.015Z,20.83
2019-04-05T18:05:30.188Z,21.80
2019-04-05T18:07:59.344Z,21.30
2019-04-05T18:10:28.479Z,22.00
2019-04-05T18:12:57.657Z,22.07
2019-04-05T18:15:26.893Z,24.00
2019-04-05T18:17:56.249Z,23.90
2019-04-05T18:20:25.450Z,25.70
2019-04-05T18:22:54.600Z,24.93
2019-04-05T18:25:23.789Z,23.77
2019-04-05T18:27:53.002Z,23.20
2019-04-05T18:30:22.169Z,23.67
2019-04-05T18:32:51.360Z,23.73
2019-04-05T18:35:20.592Z,24.37
2019-04-05T18:37:49.773Z,25.00
2019-04-05T18:40:18.934Z,25.83
2019-04-05T18:42:48.104Z,26.90
2019-04-05T18:45:17.584Z,21.87
2019-04-05T18:47:46.880Z,24.53
2019-04-05T18:50:16.147Z,26.13
2019-04-05T18:52:45.400Z,24.80
2019-04-05T18:55:15.437Z,23.43
2019-04-05T18:57:44.599Z,24.23
2019-04-05T19:00:14.094Z,25.00
2019-04-05T19:02:43.303Z,23.67
2019-04-05T19:05:13.986Z,22.43
2019-04-05T19:07:43.122Z,24.90
2019-04-05T19:10:12.410Z,29.50
2019-04-05T19:12:41.695Z,25.23
2019-04-05T19:15:11.326Z,25.60
2019-04-05T19:17:40.498Z,25.93
2019-04-05T19:20:09.652Z,22.13
2019-04-05T19:22:38.861Z,26.13
2019-04-05T19:25:08.021Z,25.57
2019-04-05T19:27:37.183Z,23.77
2019-04-05T19:50:15.049Z,25.87
2019-04-05T19:52:44.214Z,27.23
2019-04-05T19:55:13.524Z,25.27
2019-04-05T19:57:42.739Z,25.37
2019-04-05T20:00:11.972Z,27.07
2019-04-05T20:02:41.127Z,23.80
2019-04-05T20:05:10.333Z,26.40
2019-04-05T20:07:39.532Z,24.77
2019-04-05T20:10:08.829Z,24.63
2019-04-05T20:12:37.997Z,26.13
2019-04-05T20:15:07.490Z,24.83
2019-04-05T20:17:36.864Z,26.63
2019-04-05T20:20:06.888Z,26.77
2019-04-05T20:22:36.058Z,26.80
2019-04-05T20:25:05.982Z,27.13
2019-04-05T20:27:35.203Z,32.70
2019-04-05T20:30:05.771Z,28.63
2019-04-05T20:32:34.979Z,26.77
2019-04-05T20:35:04.609Z,26.90
2019-04-05T20:37:33.775Z,28.53
2019-04-05T20:40:03.009Z,28.30
2019-04-05T20:42:32.190Z,27.03
2019-04-05T20:45:01.372Z,26.13
2019-04-05T20:47:30.532Z,25.77
2019-04-05T20:49:59.808Z,26.17
2019-04-05T20:52:29.022Z,29.43
2019-04-05T20:54:58.204Z,28.37
2019-04-05T20:57:27.475Z,33.17
2019-04-05T20:59:56.664Z,27.57
2019-04-05T21:02:25.828Z,27.83
2019-04-05T21:04:55.014Z,31.87
2019-04-05T21:07:24.179Z,31.83
2019-04-05T21:09:53.379Z,30.07
2019-04-05T21:12:22.565Z,28.40
2019-04-05T21:14:51.703Z,30.27
2019-04-05T21:17:20.842Z,31.10
2019-04-05T21:19:50.008Z,32.03
2019-04-05T21:22:19.181Z,31.40
2019-04-05T21:24:48.778Z,29.63
2019-04-05T21:27:18.041Z,30.60
2019-04-05T21:29:47.168Z,29.50
2019-04-05T21:32:16.344Z,29.63
2019-04-05T21:34:45.523Z,31.83
2019-04-05T21:37:14.730Z,30.20
2019-04-05T21:39:43.860Z,35.20
2019-04-05T21:42:13.004Z,39.17
2019-04-05T21:44:42.146Z,34.77
2019-04-05T21:47:11.694Z,33.23
2019-04-05T21:49:40.867Z,36.13
2019-04-05T21:52:10.095Z,34.23
2019-04-05T21:54:47.515Z,34.40
2019-04-05T21:57:10.171Z,35.47
2019-04-05T21:59:39.359Z,32.50
2019-04-05T22:02:08.515Z,34.43
2019-04-05T22:04:37.657Z,31.17
2019-04-05T22:07:06.821Z,43.27
2019-04-05T22:09:35.971Z,38.80
2019-04-05T22:12:05.534Z,37.37
2019-04-05T22:14:34.679Z,37.57
2019-04-05T22:17:03.815Z,32.87
2019-04-05T22:19:32.996Z,30.67
2019-04-05T22:22:02.154Z,32.53
2019-04-05T22:24:31.323Z,30.97
2019-04-05T22:27:00.536Z,28.67
2019-04-05T22:29:29.798Z,32.20
2019-04-05T22:31:58.962Z,33.23
2019-04-05T22:34:28.123Z,30.87
2019-04-05T22:36:57.255Z,39.53
2019-04-05T22:39:26.524Z,33.73
2019-04-05T22:41:55.674Z,32.97
2019-04-05T22:44:24.944Z,32.83
2019-04-05T22:46:54.193Z,37.93
2019-04-05T22:49:23.330Z,32.43
2019-04-05T22:51:52.517Z,33.63
2019-04-05T22:54:21.662Z,30.40
2019-04-05T22:56:50.876Z,30.63
2019-04-05T22:59:20.030Z,30.63
2019-04-05T23:01:49.228Z,35.10
2019-04-05T23:04:18.410Z,34.10
2019-04-05T23:06:47.552Z,30.77
2019-04-05T23:09:16.731Z,31.70
2019-04-05T23:11:45.874Z,36.63
2019-04-05T23:14:15.005Z,31.30
2019-04-05T23:16:44.177Z,29.73
2019-04-05T23:19:13.305Z,35.83
2019-04-05T23:21:42.459Z,33.17
2019-04-05T23:24:11.597Z,30.57
2019-04-05T23:26:40.751Z,33.33
2019-04-05T23:29:09.973Z,31.13
2019-04-05T23:31:39.195Z,32.07
2019-04-05T23:34:08.392Z,32.80
2019-04-05T23:36:37.630Z,29.37
2019-04-05T23:39:07.319Z,31.07
2019-04-05T23:41:36.466Z,33.70
2019-04-05T23:44:05.637Z,32.03
2019-04-05T23:46:34.833Z,28.70
2019-04-05T23:49:04.014Z,31.67
2019-04-05T23:51:33.151Z,32.40
2019-04-05T23:54:02.324Z,39.53
2019-04-05T23:56:31.485Z,34.40
2019-04-05T23:59:00.642Z,31.73
